Alcester, South Dakota
Current Conditions -  °F | °C
As of 2:35 AM on Monday 24 Nov 2014 (Local Time) from KLRJ Reporting Station
Overcast Overcast  
Wind Chill: 10°   Ceiling: 3600
Heat Index: 25°   Visibility: 10mi
Dew Point: 16°   Wind: 23mph
Humidity: 69%   Direction: 320°NW
Pressure: 29.53"   Gusts: 32mph
Location:  43.02°N, 96.63°W
Report Text: KLRJ 240835Z AUTO 32020G28KT 10SM FEW024 OVC036 M04/M09 A2953 RMK AO2
Loading
Personal Weather Stations






























Interactive Weather Map New forecast layout! Learn more

10-Day Weather Forecast

Advertisements
Track Severe Weather on mobile